Kezdőlap
METAR-TAF:

METAR-TAF

Repülőterek :

Boone Municipal Airport

Boone, Iowa, Amerikai Egyesült Államok

földrajzi szélesség: 42-03N, földrajzi hosszúság: 093-51W, magasság: 354 m

Jelenlegi meteorológiai megfigyelések

A jelentés 15 perccel ezelõtt készült, 14:35 UTC
Nyugati szél 7 kt széllökések: 12 kt
Hőmérséklet 28°C
Páratartalom 79%
Légköri nyomás 1019 hPa
Látótávolság: 16.1 km
Derült ég

METAR: KBNW 281435Z AUTO 26007G12KT 10SM CLR 28/24 A3009 RMK AO2

Idő: 09:50 (14:50 UTC)


TAF: hiányzik

Meteorológiai megfigyelések és előrejelzések több, mint 4000 repülőtéren (METAR és TAF jelentéseket).

A térképen piros és sárga pontok jelzik az elérhető meteorológiai állomásokat.

Mozgassa az egeret a pont fölött, hogy megjelenjen az állomás neve.

Azután kattintson az időjárási megfigyelések és előrejelzések megtekintéséhez.

A térkép megváltoztatása: kattintson a fekete keresztel jelölt zöld gombra ráközelítéshez, a vonallal jelölt zöld gombra távolításhoz, vagy a zöld nyilakra a szomszédos térképek eléréséhez.


METAR-TAF: